sensor_id;sensor_type;location;lat;lon;timestamp;P1;durP1;ratioP1;P2;durP2;ratioP2
4377;SDS011;2203;53.686;9.994;2023-08-31T00:02:05;16.47;;;10.97;;
4377;SDS011;2203;53.686;9.994;2023-08-31T00:04:30;16.70;;;11.50;;
4377;SDS011;2203;53.686;9.994;2023-08-31T00:06:56;21.53;;;10.30;;
4377;SDS011;2203;53.686;9.994;2023-08-31T00:09:22;15.23;;;10.07;;
4377;SDS011;2203;53.686;9.994;2023-08-31T00:11:49;14.53;;;10.53;;
4377;SDS011;2203;53.686;9.994;2023-08-31T00:14:15;14.30;;;10.00;;
4377;SDS011;2203;53.686;9.994;2023-08-31T00:16:40;14.40;;;10.43;;
4377;SDS011;2203;53.686;9.994;2023-08-31T00:19:06;13.77;;;9.60;;
4377;SDS011;2203;53.686;9.994;2023-08-31T00:21:31;13.83;;;9.73;;
4377;SDS011;2203;53.686;9.994;2023-08-31T00:23:57;13.00;;;9.50;;
4377;SDS011;2203;53.686;9.994;2023-08-31T00:26:22;14.47;;;10.17;;
4377;SDS011;2203;53.686;9.994;2023-08-31T00:28:47;16.23;;;9.67;;
4377;SDS011;2203;53.686;9.994;2023-08-31T00:31:13;11.87;;;9.23;;
4377;SDS011;2203;53.686;9.994;2023-08-31T00:33:39;13.43;;;9.37;;
4377;SDS011;2203;53.686;9.994;2023-08-31T00:36:04;14.23;;;9.77;;
4377;SDS011;2203;53.686;9.994;2023-08-31T00:38:30;18.10;;;9.27;;
4377;SDS011;2203;53.686;9.994;2023-08-31T00:40:56;16.10;;;9.37;;
4377;SDS011;2203;53.686;9.994;2023-08-31T00:43:21;11.97;;;9.07;;
4377;SDS011;2203;53.686;9.994;2023-08-31T00:45:48;13.17;;;9.23;;
4377;SDS011;2203;53.686;9.994;2023-08-31T00:48:15;14.20;;;8.30;;
4377;SDS011;2203;53.686;9.994;2023-08-31T00:50:45;11.50;;;8.30;;
4377;SDS011;2203;53.686;9.994;2023-08-31T00:53:10;11.53;;;8.33;;
4377;SDS011;2203;53.686;9.994;2023-08-31T00:55:36;13.67;;;7.50;;
4377;SDS011;2203;53.686;9.994;2023-08-31T00:58:04;11.43;;;8.43;;
4377;SDS011;2203;53.686;9.994;2023-08-31T01:00:36;13.40;;;9.57;;
4377;SDS011;2203;53.686;9.994;2023-08-31T01:03:11;12.53;;;8.30;;
4377;SDS011;2203;53.686;9.994;2023-08-31T01:05:46;10.80;;;7.10;;
4377;SDS011;2203;53.686;9.994;2023-08-31T01:13:28;14.83;;;8.93;;
4377;SDS011;2203;53.686;9.994;2023-08-31T01:15:56;14.60;;;9.33;;
4377;SDS011;2203;53.686;9.994;2023-08-31T01:18:25;14.43;;;7.67;;
4377;SDS011;2203;53.686;9.994;2023-08-31T01:23:53;12.57;;;8.13;;
4377;SDS011;2203;53.686;9.994;2023-08-31T01:26:19;12.57;;;8.37;;
4377;SDS011;2203;53.686;9.994;2023-08-31T01:28:48;21.73;;;8.30;;
4377;SDS011;2203;53.686;9.994;2023-08-31T01:31:14;12.80;;;7.97;;
4377;SDS011;2203;53.686;9.994;2023-08-31T01:33:42;14.27;;;8.40;;
4377;SDS011;2203;53.686;9.994;2023-08-31T01:36:12;14.90;;;8.73;;
4377;SDS011;2203;53.686;9.994;2023-08-31T01:38:42;13.73;;;8.60;;
4377;SDS011;2203;53.686;9.994;2023-08-31T01:41:10;13.70;;;8.50;;
4377;SDS011;2203;53.686;9.994;2023-08-31T01:43:38;12.20;;;8.47;;
4377;SDS011;2203;53.686;9.994;2023-08-31T01:46:06;12.00;;;7.33;;
4377;SDS011;2203;53.686;9.994;2023-08-31T01:48:37;10.77;;;7.50;;
4377;SDS011;2203;53.686;9.994;2023-08-31T01:51:04;13.60;;;7.90;;
4377;SDS011;2203;53.686;9.994;2023-08-31T01:53:30;10.50;;;8.00;;
4377;SDS011;2203;53.686;9.994;2023-08-31T01:55:56;13.23;;;7.50;;
4377;SDS011;2203;53.686;9.994;2023-08-31T01:58:21;16.27;;;7.40;;
4377;SDS011;2203;53.686;9.994;2023-08-31T02:00:47;9.47;;;6.93;;
4377;SDS011;2203;53.686;9.994;2023-08-31T02:03:13;13.80;;;7.60;;
4377;SDS011;2203;53.686;9.994;2023-08-31T02:05:38;10.47;;;7.47;;
4377;SDS011;2203;53.686;9.994;2023-08-31T02:08:04;9.33;;;7.10;;
4377;SDS011;2203;53.686;9.994;2023-08-31T02:10:29;7.67;;;6.43;;
4377;SDS011;2203;53.686;9.994;2023-08-31T02:12:54;12.80;;;6.90;;
4377;SDS011;2203;53.686;9.994;2023-08-31T02:15:20;10.47;;;6.60;;
4377;SDS011;2203;53.686;9.994;2023-08-31T02:17:45;10.30;;;6.30;;
4377;SDS011;2203;53.686;9.994;2023-08-31T02:20:11;11.63;;;6.60;;
4377;SDS011;2203;53.686;9.994;2023-08-31T02:22:36;9.00;;;6.40;;
4377;SDS011;2203;53.686;9.994;2023-08-31T02:25:02;10.30;;;5.83;;
4377;SDS011;2203;53.686;9.994;2023-08-31T02:27:28;10.27;;;6.07;;
4377;SDS011;2203;53.686;9.994;2023-08-31T02:29:53;10.30;;;5.63;;
4377;SDS011;2203;53.686;9.994;2023-08-31T02:32:19;7.03;;;5.40;;
4377;SDS011;2203;53.686;9.994;2023-08-31T02:34:44;9.97;;;6.30;;
4377;SDS011;2203;53.686;9.994;2023-08-31T02:37:10;13.00;;;6.10;;
4377;SDS011;2203;53.686;9.994;2023-08-31T02:39:35;9.87;;;5.60;;
4377;SDS011;2203;53.686;9.994;2023-08-31T02:42:01;10.43;;;6.30;;
4377;SDS011;2203;53.686;9.994;2023-08-31T02:44:26;10.40;;;5.63;;
4377;SDS011;2203;53.686;9.994;2023-08-31T02:46:51;13.80;;;5.80;;
4377;SDS011;2203;53.686;9.994;2023-08-31T02:49:17;10.90;;;5.03;;
4377;SDS011;2203;53.686;9.994;2023-08-31T02:51:42;10.03;;;6.20;;
4377;SDS011;2203;53.686;9.994;2023-08-31T02:54:08;8.27;;;4.97;;
4377;SDS011;2203;53.686;9.994;2023-08-31T02:56:33;6.07;;;5.00;;
4377;SDS011;2203;53.686;9.994;2023-08-31T02:58:58;13.30;;;5.60;;
4377;SDS011;2203;53.686;9.994;2023-08-31T03:01:24;10.53;;;5.17;;
4377;SDS011;2203;53.686;9.994;2023-08-31T03:03:49;15.23;;;5.70;;
4377;SDS011;2203;53.686;9.994;2023-08-31T03:06:15;10.23;;;4.97;;
4377;SDS011;2203;53.686;9.994;2023-08-31T03:08:40;11.20;;;5.43;;
4377;SDS011;2203;53.686;9.994;2023-08-31T03:11:06;14.13;;;4.67;;
4377;SDS011;2203;53.686;9.994;2023-08-31T03:13:32;7.17;;;4.80;;
4377;SDS011;2203;53.686;9.994;2023-08-31T03:15:57;13.37;;;5.20;;
4377;SDS011;2203;53.686;9.994;2023-08-31T03:18:23;9.30;;;4.70;;
4377;SDS011;2203;53.686;9.994;2023-08-31T03:20:48;9.70;;;5.50;;
4377;SDS011;2203;53.686;9.994;2023-08-31T03:23:14;8.10;;;4.33;;
4377;SDS011;2203;53.686;9.994;2023-08-31T03:25:39;16.50;;;5.37;;
4377;SDS011;2203;53.686;9.994;2023-08-31T03:28:05;16.53;;;5.30;;
4377;SDS011;2203;53.686;9.994;2023-08-31T03:30:30;7.00;;;5.00;;
4377;SDS011;2203;53.686;9.994;2023-08-31T03:32:56;10.93;;;5.23;;
4377;SDS011;2203;53.686;9.994;2023-08-31T03:35:21;9.10;;;4.10;;
4377;SDS011;2203;53.686;9.994;2023-08-31T03:37:51;8.20;;;4.57;;
4377;SDS011;2203;53.686;9.994;2023-08-31T03:40:17;5.93;;;4.40;;
4377;SDS011;2203;53.686;9.994;2023-08-31T03:42:42;7.17;;;3.90;;
4377;SDS011;2203;53.686;9.994;2023-08-31T03:45:08;7.23;;;4.40;;
4377;SDS011;2203;53.686;9.994;2023-08-31T03:47:33;8.63;;;4.07;;
4377;SDS011;2203;53.686;9.994;2023-08-31T03:49:59;9.60;;;4.23;;
4377;SDS011;2203;53.686;9.994;2023-08-31T03:52:24;13.83;;;4.13;;
4377;SDS011;2203;53.686;9.994;2023-08-31T03:54:51;9.50;;;4.10;;
4377;SDS011;2203;53.686;9.994;2023-08-31T03:57:17;12.80;;;4.40;;
4377;SDS011;2203;53.686;9.994;2023-08-31T03:59:42;4.27;;;3.77;;
4377;SDS011;2203;53.686;9.994;2023-08-31T04:02:08;8.70;;;4.70;;
4377;SDS011;2203;53.686;9.994;2023-08-31T04:04:33;6.60;;;4.07;;
4377;SDS011;2203;53.686;9.994;2023-08-31T04:06:59;7.97;;;4.00;;
4377;SDS011;2203;53.686;9.994;2023-08-31T04:09:24;11.80;;;4.10;;
4377;SDS011;2203;53.686;9.994;2023-08-31T04:11:50;10.00;;;4.17;;
4377;SDS011;2203;53.686;9.994;2023-08-31T04:14:15;12.90;;;3.73;;
4377;SDS011;2203;53.686;9.994;2023-08-31T04:16:42;11.20;;;4.10;;
4377;SDS011;2203;53.686;9.994;2023-08-31T04:19:07;10.53;;;3.70;;
4377;SDS011;2203;53.686;9.994;2023-08-31T04:21:33;6.20;;;3.13;;
4377;SDS011;2203;53.686;9.994;2023-08-31T04:23:58;12.03;;;3.77;;
4377;SDS011;2203;53.686;9.994;2023-08-31T04:26:25;5.80;;;3.60;;
4377;SDS011;2203;53.686;9.994;2023-08-31T04:28:50;5.87;;;3.63;;
4377;SDS011;2203;53.686;9.994;2023-08-31T04:31:16;9.40;;;3.40;;
4377;SDS011;2203;53.686;9.994;2023-08-31T04:33:41;9.47;;;3.10;;
4377;SDS011;2203;53.686;9.994;2023-08-31T04:36:06;6.20;;;3.20;;
4377;SDS011;2203;53.686;9.994;2023-08-31T04:38:33;5.43;;;3.20;;
4377;SDS011;2203;53.686;9.994;2023-08-31T04:40:59;8.30;;;3.27;;
4377;SDS011;2203;53.686;9.994;2023-08-31T04:43:25;8.07;;;3.80;;
4377;SDS011;2203;53.686;9.994;2023-08-31T04:45:54;7.40;;;3.30;;
4377;SDS011;2203;53.686;9.994;2023-08-31T04:48:19;5.57;;;3.07;;
4377;SDS011;2203;53.686;9.994;2023-08-31T04:50:45;7.70;;;2.40;;
4377;SDS011;2203;53.686;9.994;2023-08-31T04:53:10;7.47;;;2.77;;
4377;SDS011;2203;53.686;9.994;2023-08-31T04:55:36;5.17;;;2.90;;
4377;SDS011;2203;53.686;9.994;2023-08-31T04:58:02;9.80;;;3.37;;
4377;SDS011;2203;53.686;9.994;2023-08-31T05:00:28;6.10;;;2.80;;
4377;SDS011;2203;53.686;9.994;2023-08-31T05:02:53;8.90;;;2.93;;
4377;SDS011;2203;53.686;9.994;2023-08-31T05:05:19;6.93;;;3.50;;
4377;SDS011;2203;53.686;9.994;2023-08-31T05:07:44;8.03;;;3.07;;
4377;SDS011;2203;53.686;9.994;2023-08-31T05:10:10;9.60;;;3.03;;
4377;SDS011;2203;53.686;9.994;2023-08-31T05:12:35;20.97;;;3.23;;
4377;SDS011;2203;53.686;9.994;2023-08-31T05:15:01;8.80;;;2.70;;
4377;SDS011;2203;53.686;9.994;2023-08-31T05:17:26;9.93;;;3.00;;
4377;SDS011;2203;53.686;9.994;2023-08-31T05:19:52;8.33;;;2.73;;
4377;SDS011;2203;53.686;9.994;2023-08-31T05:22:17;8.43;;;3.90;;
4377;SDS011;2203;53.686;9.994;2023-08-31T05:24:43;9.70;;;3.57;;
4377;SDS011;2203;53.686;9.994;2023-08-31T05:27:08;10.30;;;3.47;;
4377;SDS011;2203;53.686;9.994;2023-08-31T05:29:33;16.37;;;3.20;;
4377;SDS011;2203;53.686;9.994;2023-08-31T05:31:59;16.63;;;3.73;;
4377;SDS011;2203;53.686;9.994;2023-08-31T05:34:24;15.37;;;3.43;;
4377;SDS011;2203;53.686;9.994;2023-08-31T05:36:50;15.13;;;4.70;;
4377;SDS011;2203;53.686;9.994;2023-08-31T05:39:15;7.30;;;3.30;;
4377;SDS011;2203;53.686;9.994;2023-08-31T05:41:43;7.13;;;3.10;;
4377;SDS011;2203;53.686;9.994;2023-08-31T05:44:09;8.97;;;4.23;;
4377;SDS011;2203;53.686;9.994;2023-08-31T05:46:35;13.97;;;4.13;;
4377;SDS011;2203;53.686;9.994;2023-08-31T05:49:01;4.60;;;3.30;;
4377;SDS011;2203;53.686;9.994;2023-08-31T05:51:27;7.30;;;3.30;;
4377;SDS011;2203;53.686;9.994;2023-08-31T05:53:52;9.83;;;4.40;;
4377;SDS011;2203;53.686;9.994;2023-08-31T05:56:18;9.53;;;3.73;;
4377;SDS011;2203;53.686;9.994;2023-08-31T05:58:44;5.40;;;2.80;;
4377;SDS011;2203;53.686;9.994;2023-08-31T06:01:12;6.20;;;3.20;;
4377;SDS011;2203;53.686;9.994;2023-08-31T06:03:38;5.87;;;3.23;;
4377;SDS011;2203;53.686;9.994;2023-08-31T06:06:03;9.90;;;3.40;;
4377;SDS011;2203;53.686;9.994;2023-08-31T06:08:28;10.27;;;3.40;;
4377;SDS011;2203;53.686;9.994;2023-08-31T06:10:55;7.30;;;3.10;;
4377;SDS011;2203;53.686;9.994;2023-08-31T06:13:20;5.70;;;3.17;;
4377;SDS011;2203;53.686;9.994;2023-08-31T06:15:46;8.20;;;3.80;;
4377;SDS011;2203;53.686;9.994;2023-08-31T06:18:11;9.00;;;5.17;;
4377;SDS011;2203;53.686;9.994;2023-08-31T06:20:37;8.60;;;3.60;;
4377;SDS011;2203;53.686;9.994;2023-08-31T06:23:02;20.47;;;3.40;;
4377;SDS011;2203;53.686;9.994;2023-08-31T06:25:28;16.50;;;3.63;;
4377;SDS011;2203;53.686;9.994;2023-08-31T06:27:53;7.57;;;3.63;;
4377;SDS011;2203;53.686;9.994;2023-08-31T06:30:19;6.23;;;2.90;;
4377;SDS011;2203;53.686;9.994;2023-08-31T06:32:44;20.67;;;2.63;;
4377;SDS011;2203;53.686;9.994;2023-08-31T06:35:11;8.23;;;3.50;;
4377;SDS011;2203;53.686;9.994;2023-08-31T06:37:37;10.23;;;3.10;;
4377;SDS011;2203;53.686;9.994;2023-08-31T06:40:04;12.20;;;3.37;;
4377;SDS011;2203;53.686;9.994;2023-08-31T06:42:30;6.70;;;3.53;;
4377;SDS011;2203;53.686;9.994;2023-08-31T06:44:55;14.27;;;3.70;;
4377;SDS011;2203;53.686;9.994;2023-08-31T06:47:22;4.60;;;2.73;;
4377;SDS011;2203;53.686;9.994;2023-08-31T06:49:47;5.03;;;2.70;;
4377;SDS011;2203;53.686;9.994;2023-08-31T06:52:13;11.13;;;3.27;;
4377;SDS011;2203;53.686;9.994;2023-08-31T06:54:38;12.43;;;3.37;;
4377;SDS011;2203;53.686;9.994;2023-08-31T06:57:03;12.43;;;3.30;;
4377;SDS011;2203;53.686;9.994;2023-08-31T06:59:29;11.90;;;2.80;;
4377;SDS011;2203;53.686;9.994;2023-08-31T07:01:54;9.83;;;3.30;;
4377;SDS011;2203;53.686;9.994;2023-08-31T07:04:20;6.10;;;2.53;;
4377;SDS011;2203;53.686;9.994;2023-08-31T07:06:45;6.47;;;3.23;;
4377;SDS011;2203;53.686;9.994;2023-08-31T07:09:11;7.63;;;3.43;;
4377;SDS011;2203;53.686;9.994;2023-08-31T07:11:36;9.57;;;3.23;;
4377;SDS011;2203;53.686;9.994;2023-08-31T07:14:01;8.00;;;2.47;;
4377;SDS011;2203;53.686;9.994;2023-08-31T07:16:27;7.90;;;2.90;;
4377;SDS011;2203;53.686;9.994;2023-08-31T07:18:52;8.70;;;3.00;;
4377;SDS011;2203;53.686;9.994;2023-08-31T07:21:18;6.97;;;2.70;;
4377;SDS011;2203;53.686;9.994;2023-08-31T07:23:43;5.00;;;2.50;;
4377;SDS011;2203;53.686;9.994;2023-08-31T07:26:09;6.73;;;2.60;;
4377;SDS011;2203;53.686;9.994;2023-08-31T07:28:34;7.43;;;1.97;;
4377;SDS011;2203;53.686;9.994;2023-08-31T07:31:03;11.20;;;2.87;;
4377;SDS011;2203;53.686;9.994;2023-08-31T07:33:30;3.73;;;2.43;;
4377;SDS011;2203;53.686;9.994;2023-08-31T07:35:56;8.53;;;2.07;;
4377;SDS011;2203;53.686;9.994;2023-08-31T07:38:22;4.93;;;2.00;;
4377;SDS011;2203;53.686;9.994;2023-08-31T07:40:48;10.40;;;2.17;;
4377;SDS011;2203;53.686;9.994;2023-08-31T07:43:13;6.63;;;2.53;;
4377;SDS011;2203;53.686;9.994;2023-08-31T07:45:39;6.10;;;2.00;;
4377;SDS011;2203;53.686;9.994;2023-08-31T07:48:04;11.53;;;1.73;;
4377;SDS011;2203;53.686;9.994;2023-08-31T07:50:31;5.40;;;2.07;;
4377;SDS011;2203;53.686;9.994;2023-08-31T07:52:56;3.00;;;1.60;;
4377;SDS011;2203;53.686;9.994;2023-08-31T07:55:21;4.00;;;1.67;;
4377;SDS011;2203;53.686;9.994;2023-08-31T07:57:47;4.03;;;1.87;;
4377;SDS011;2203;53.686;9.994;2023-08-31T08:00:12;3.30;;;1.70;;
4377;SDS011;2203;53.686;9.994;2023-08-31T08:02:39;2.23;;;1.50;;
4377;SDS011;2203;53.686;9.994;2023-08-31T08:05:05;5.87;;;1.50;;
4377;SDS011;2203;53.686;9.994;2023-08-31T08:07:31;2.73;;;1.20;;
4377;SDS011;2203;53.686;9.994;2023-08-31T08:09:56;4.70;;;1.50;;
4377;SDS011;2203;53.686;9.994;2023-08-31T08:12:22;10.03;;;2.00;;
4377;SDS011;2203;53.686;9.994;2023-08-31T08:14:47;8.40;;;1.83;;
4377;SDS011;2203;53.686;9.994;2023-08-31T08:17:12;5.80;;;2.97;;
4377;SDS011;2203;53.686;9.994;2023-08-31T08:19:38;4.50;;;1.93;;
4377;SDS011;2203;53.686;9.994;2023-08-31T08:22:03;8.87;;;1.60;;
4377;SDS011;2203;53.686;9.994;2023-08-31T08:24:29;6.53;;;1.87;;
4377;SDS011;2203;53.686;9.994;2023-08-31T08:26:54;3.60;;;1.30;;
4377;SDS011;2203;53.686;9.994;2023-08-31T08:29:20;6.87;;;2.00;;
4377;SDS011;2203;53.686;9.994;2023-08-31T08:31:45;3.83;;;1.70;;
4377;SDS011;2203;53.686;9.994;2023-08-31T08:34:10;3.00;;;1.37;;
4377;SDS011;2203;53.686;9.994;2023-08-31T08:36:36;5.00;;;1.90;;
4377;SDS011;2203;53.686;9.994;2023-08-31T08:39:01;4.20;;;1.67;;
4377;SDS011;2203;53.686;9.994;2023-08-31T08:41:27;7.90;;;2.40;;
4377;SDS011;2203;53.686;9.994;2023-08-31T08:43:54;3.30;;;2.10;;
4377;SDS011;2203;53.686;9.994;2023-08-31T08:46:21;11.83;;;3.63;;
4377;SDS011;2203;53.686;9.994;2023-08-31T08:48:47;5.67;;;2.20;;
4377;SDS011;2203;53.686;9.994;2023-08-31T08:51:13;5.67;;;2.30;;
4377;SDS011;2203;53.686;9.994;2023-08-31T08:53:42;4.90;;;2.17;;
4377;SDS011;2203;53.686;9.994;2023-08-31T08:56:08;2.27;;;1.83;;
4377;SDS011;2203;53.686;9.994;2023-08-31T08:58:34;8.10;;;1.50;;
4377;SDS011;2203;53.686;9.994;2023-08-31T09:00:59;7.07;;;1.90;;
4377;SDS011;2203;53.686;9.994;2023-08-31T09:03:25;9.97;;;2.10;;
4377;SDS011;2203;53.686;9.994;2023-08-31T09:05:50;6.93;;;2.00;;
4377;SDS011;2203;53.686;9.994;2023-08-31T09:08:25;4.77;;;2.83;;
4377;SDS011;2203;53.686;9.994;2023-08-31T09:10:52;8.93;;;1.80;;
4377;SDS011;2203;53.686;9.994;2023-08-31T09:13:18;6.07;;;1.70;;
4377;SDS011;2203;53.686;9.994;2023-08-31T09:15:47;13.00;;;2.47;;
4377;SDS011;2203;53.686;9.994;2023-08-31T09:18:13;1.77;;;1.67;;
4377;SDS011;2203;53.686;9.994;2023-08-31T09:20:48;4.30;;;2.10;;
4377;SDS011;2203;53.686;9.994;2023-08-31T09:23:14;11.23;;;2.60;;
4377;SDS011;2203;53.686;9.994;2023-08-31T09:25:43;10.57;;;2.50;;
4377;SDS011;2203;53.686;9.994;2023-08-31T09:28:14;4.13;;;2.03;;
4377;SDS011;2203;53.686;9.994;2023-08-31T09:30:45;9.03;;;2.87;;
4377;SDS011;2203;53.686;9.994;2023-08-31T09:33:16;4.50;;;2.57;;
4377;SDS011;2203;53.686;9.994;2023-08-31T09:35:51;8.80;;;2.23;;
4377;SDS011;2203;53.686;9.994;2023-08-31T09:38:24;6.47;;;2.13;;
4377;SDS011;2203;53.686;9.994;2023-08-31T09:40:50;9.77;;;2.60;;
4377;SDS011;2203;53.686;9.994;2023-08-31T09:43:19;11.10;;;3.00;;
4377;SDS011;2203;53.686;9.994;2023-08-31T09:45:46;6.17;;;2.20;;
4377;SDS011;2203;53.686;9.994;2023-08-31T09:48:12;3.27;;;2.17;;
4377;SDS011;2203;53.686;9.994;2023-08-31T09:50:39;6.20;;;2.47;;
4377;SDS011;2203;53.686;9.994;2023-08-31T09:53:05;8.67;;;2.60;;
4377;SDS011;2203;53.686;9.994;2023-08-31T09:55:31;5.63;;;2.07;;
4377;SDS011;2203;53.686;9.994;2023-08-31T09:57:58;11.20;;;3.33;;
4377;SDS011;2203;53.686;9.994;2023-08-31T10:00:28;3.13;;;1.97;;
4377;SDS011;2203;53.686;9.994;2023-08-31T10:02:55;20.50;;;2.33;;
4377;SDS011;2203;53.686;9.994;2023-08-31T10:05:24;4.63;;;1.70;;
4377;SDS011;2203;53.686;9.994;2023-08-31T10:07:50;4.93;;;2.20;;
4377;SDS011;2203;53.686;9.994;2023-08-31T10:10:16;6.00;;;2.17;;
4377;SDS011;2203;53.686;9.994;2023-08-31T10:12:42;6.00;;;2.43;;
4377;SDS011;2203;53.686;9.994;2023-08-31T10:15:10;9.27;;;2.10;;
4377;SDS011;2203;53.686;9.994;2023-08-31T10:17:36;6.20;;;1.73;;
4377;SDS011;2203;53.686;9.994;2023-08-31T10:20:02;3.37;;;1.90;;
4377;SDS011;2203;53.686;9.994;2023-08-31T10:22:28;8.73;;;3.73;;
4377;SDS011;2203;53.686;9.994;2023-08-31T10:27:28;7.27;;;2.07;;
4377;SDS011;2203;53.686;9.994;2023-08-31T10:30:25;2.80;;;2.17;;
4377;SDS011;2203;53.686;9.994;2023-08-31T10:35:40;6.33;;;2.00;;
4377;SDS011;2203;53.686;9.994;2023-08-31T10:38:30;4.27;;;2.20;;
4377;SDS011;2203;53.686;9.994;2023-08-31T10:41:39;11.10;;;2.30;;
4377;SDS011;2203;53.686;9.994;2023-08-31T10:43:55;4.93;;;2.37;;
4377;SDS011;2203;53.686;9.994;2023-08-31T10:46:31;2.80;;;1.70;;
4377;SDS011;2203;53.686;9.994;2023-08-31T10:51:36;3.40;;;1.80;;
4377;SDS011;2203;53.686;9.994;2023-08-31T10:56:38;2.50;;;2.30;;
4377;SDS011;2203;53.686;9.994;2023-08-31T10:59:43;7.10;;;2.57;;
4377;SDS011;2203;53.686;9.994;2023-08-31T11:07:42;9.00;;;2.33;;
4377;SDS011;2203;53.686;9.994;2023-08-31T11:12:50;3.80;;;2.03;;
4377;SDS011;2203;53.686;9.994;2023-08-31T11:15:18;7.53;;;2.00;;
4377;SDS011;2203;53.686;9.994;2023-08-31T11:17:44;6.20;;;2.07;;
4377;SDS011;2203;53.686;9.994;2023-08-31T11:20:15;2.03;;;1.60;;
4377;SDS011;2203;53.686;9.994;2023-08-31T11:22:41;2.20;;;1.50;;
4377;SDS011;2203;53.686;9.994;2023-08-31T11:25:11;1.97;;;1.60;;
4377;SDS011;2203;53.686;9.994;2023-08-31T11:27:38;6.17;;;1.30;;
4377;SDS011;2203;53.686;9.994;2023-08-31T11:30:14;8.20;;;1.80;;
4377;SDS011;2203;53.686;9.994;2023-08-31T11:32:46;2.27;;;1.47;;
4377;SDS011;2203;53.686;9.994;2023-08-31T11:35:14;3.33;;;1.20;;
4377;SDS011;2203;53.686;9.994;2023-08-31T11:37:41;6.00;;;1.80;;
4377;SDS011;2203;53.686;9.994;2023-08-31T11:40:06;4.50;;;1.50;;
4377;SDS011;2203;53.686;9.994;2023-08-31T11:42:33;4.30;;;1.53;;
4377;SDS011;2203;53.686;9.994;2023-08-31T11:44:59;1.67;;;1.10;;
4377;SDS011;2203;53.686;9.994;2023-08-31T11:47:24;3.67;;;1.47;;
4377;SDS011;2203;53.686;9.994;2023-08-31T11:49:50;5.80;;;1.20;;
4377;SDS011;2203;53.686;9.994;2023-08-31T11:52:15;2.13;;;0.90;;
4377;SDS011;2203;53.686;9.994;2023-08-31T11:54:41;2.30;;;1.10;;
4377;SDS011;2203;53.686;9.994;2023-08-31T11:57:07;6.33;;;1.33;;
4377;SDS011;2203;53.686;9.994;2023-08-31T11:59:34;3.20;;;1.03;;
4377;SDS011;2203;53.686;9.994;2023-08-31T12:02:06;6.90;;;1.33;;
4377;SDS011;2203;53.686;9.994;2023-08-31T12:04:33;4.03;;;1.43;;
4377;SDS011;2203;53.686;9.994;2023-08-31T12:07:02;3.37;;;1.50;;
4377;SDS011;2203;53.686;9.994;2023-08-31T12:09:31;3.83;;;1.17;;
4377;SDS011;2203;53.686;9.994;2023-08-31T12:11:57;3.40;;;0.90;;
4377;SDS011;2203;53.686;9.994;2023-08-31T12:14:25;7.50;;;1.80;;
4377;SDS011;2203;53.686;9.994;2023-08-31T12:16:53;4.57;;;1.40;;
4377;SDS011;2203;53.686;9.994;2023-08-31T12:19:28;2.47;;;1.07;;
4377;SDS011;2203;53.686;9.994;2023-08-31T12:21:57;1.30;;;0.93;;
4377;SDS011;2203;53.686;9.994;2023-08-31T12:24:23;1.60;;;1.17;;
4377;SDS011;2203;53.686;9.994;2023-08-31T12:26:49;4.23;;;1.00;;
4377;SDS011;2203;53.686;9.994;2023-08-31T12:29:15;2.53;;;1.00;;
4377;SDS011;2203;53.686;9.994;2023-08-31T12:31:41;3.03;;;0.83;;
4377;SDS011;2203;53.686;9.994;2023-08-31T12:34:06;1.53;;;1.00;;
4377;SDS011;2203;53.686;9.994;2023-08-31T12:36:35;1.63;;;0.90;;
4377;SDS011;2203;53.686;9.994;2023-08-31T12:39:06;2.30;;;0.70;;
4377;SDS011;2203;53.686;9.994;2023-08-31T12:41:38;1.17;;;0.60;;
4377;SDS011;2203;53.686;9.994;2023-08-31T12:44:04;2.93;;;0.83;;
4377;SDS011;2203;53.686;9.994;2023-08-31T12:46:30;2.03;;;1.00;;
4377;SDS011;2203;53.686;9.994;2023-08-31T12:48:56;1.70;;;1.00;;
4377;SDS011;2203;53.686;9.994;2023-08-31T12:51:21;2.20;;;0.93;;
4377;SDS011;2203;53.686;9.994;2023-08-31T12:53:47;5.87;;;1.07;;
4377;SDS011;2203;53.686;9.994;2023-08-31T12:56:13;1.00;;;0.80;;
4377;SDS011;2203;53.686;9.994;2023-08-31T12:58:47;12.30;;;1.10;;
4377;SDS011;2203;53.686;9.994;2023-08-31T13:01:13;0.80;;;0.73;;
4377;SDS011;2203;53.686;9.994;2023-08-31T13:03:39;1.53;;;1.00;;
4377;SDS011;2203;53.686;9.994;2023-08-31T13:06:04;1.20;;;1.00;;
4377;SDS011;2203;53.686;9.994;2023-08-31T13:08:30;3.63;;;0.97;;
4377;SDS011;2203;53.686;9.994;2023-08-31T13:10:55;1.63;;;0.80;;
4377;SDS011;2203;53.686;9.994;2023-08-31T13:13:21;2.13;;;0.80;;
4377;SDS011;2203;53.686;9.994;2023-08-31T13:15:47;2.50;;;1.10;;
4377;SDS011;2203;53.686;9.994;2023-08-31T13:18:13;1.07;;;0.80;;
4377;SDS011;2203;53.686;9.994;2023-08-31T13:20:38;1.63;;;0.93;;
4377;SDS011;2203;53.686;9.994;2023-08-31T13:23:04;1.20;;;1.00;;
4377;SDS011;2203;53.686;9.994;2023-08-31T13:25:30;2.03;;;0.90;;
4377;SDS011;2203;53.686;9.994;2023-08-31T13:27:56;0.80;;;0.60;;
4377;SDS011;2203;53.686;9.994;2023-08-31T13:30:22;0.90;;;0.80;;
4377;SDS011;2203;53.686;9.994;2023-08-31T13:32:47;1.00;;;0.90;;
4377;SDS011;2203;53.686;9.994;2023-08-31T13:35:12;1.33;;;0.83;;
4377;SDS011;2203;53.686;9.994;2023-08-31T13:37:38;1.80;;;1.00;;
4377;SDS011;2203;53.686;9.994;2023-08-31T13:40:03;1.10;;;0.80;;
4377;SDS011;2203;53.686;9.994;2023-08-31T13:42:34;2.10;;;0.97;;
4377;SDS011;2203;53.686;9.994;2023-08-31T13:45:06;1.20;;;0.80;;
4377;SDS011;2203;53.686;9.994;2023-08-31T13:47:32;3.23;;;1.10;;
4377;SDS011;2203;53.686;9.994;2023-08-31T13:49:57;1.20;;;0.90;;
4377;SDS011;2203;53.686;9.994;2023-08-31T13:52:23;6.90;;;1.43;;
4377;SDS011;2203;53.686;9.994;2023-08-31T13:54:49;1.07;;;0.80;;
4377;SDS011;2203;53.686;9.994;2023-08-31T13:57:14;2.40;;;1.00;;
4377;SDS011;2203;53.686;9.994;2023-08-31T13:59:42;1.40;;;1.00;;
4377;SDS011;2203;53.686;9.994;2023-08-31T14:02:08;2.00;;;0.90;;
4377;SDS011;2203;53.686;9.994;2023-08-31T14:04:33;1.67;;;1.00;;
4377;SDS011;2203;53.686;9.994;2023-08-31T14:06:59;3.47;;;1.00;;
4377;SDS011;2203;53.686;9.994;2023-08-31T14:09:26;0.80;;;0.80;;
4377;SDS011;2203;53.686;9.994;2023-08-31T14:11:51;1.27;;;0.80;;
4377;SDS011;2203;53.686;9.994;2023-08-31T14:14:17;1.70;;;1.07;;
4377;SDS011;2203;53.686;9.994;2023-08-31T14:16:43;2.80;;;0.90;;
4377;SDS011;2203;53.686;9.994;2023-08-31T14:19:09;4.10;;;1.00;;
4377;SDS011;2203;53.686;9.994;2023-08-31T14:21:34;1.03;;;0.80;;
4377;SDS011;2203;53.686;9.994;2023-08-31T14:23:59;4.00;;;1.47;;
4377;SDS011;2203;53.686;9.994;2023-08-31T14:26:25;3.03;;;1.10;;
4377;SDS011;2203;53.686;9.994;2023-08-31T14:28:51;1.47;;;0.97;;
4377;SDS011;2203;53.686;9.994;2023-08-31T14:31:16;1.07;;;0.90;;
4377;SDS011;2203;53.686;9.994;2023-08-31T14:33:44;1.50;;;0.77;;
4377;SDS011;2203;53.686;9.994;2023-08-31T14:36:11;3.90;;;1.13;;
4377;SDS011;2203;53.686;9.994;2023-08-31T14:38:38;6.93;;;1.37;;
4377;SDS011;2203;53.686;9.994;2023-08-31T14:41:04;2.60;;;1.10;;
4377;SDS011;2203;53.686;9.994;2023-08-31T14:43:31;4.87;;;2.80;;
4377;SDS011;2203;53.686;9.994;2023-08-31T14:45:57;1.73;;;0.87;;
4377;SDS011;2203;53.686;9.994;2023-08-31T14:48:22;6.07;;;0.77;;
4377;SDS011;2203;53.686;9.994;2023-08-31T14:50:49;2.80;;;1.00;;
4377;SDS011;2203;53.686;9.994;2023-08-31T14:53:14;1.93;;;0.87;;
4377;SDS011;2203;53.686;9.994;2023-08-31T14:55:40;1.13;;;0.80;;
4377;SDS011;2203;53.686;9.994;2023-08-31T14:58:05;5.80;;;1.13;;
4377;SDS011;2203;53.686;9.994;2023-08-31T15:00:31;1.73;;;0.80;;
4377;SDS011;2203;53.686;9.994;2023-08-31T15:02:56;3.57;;;1.47;;
4377;SDS011;2203;53.686;9.994;2023-08-31T15:05:22;1.33;;;1.00;;
4377;SDS011;2203;53.686;9.994;2023-08-31T15:07:50;0.93;;;0.60;;
4377;SDS011;2203;53.686;9.994;2023-08-31T15:10:15;3.43;;;1.10;;
4377;SDS011;2203;53.686;9.994;2023-08-31T15:12:42;2.30;;;1.70;;
4377;SDS011;2203;53.686;9.994;2023-08-31T15:15:07;3.43;;;0.90;;
4377;SDS011;2203;53.686;9.994;2023-08-31T15:17:34;4.80;;;1.50;;
4377;SDS011;2203;53.686;9.994;2023-08-31T15:19:59;5.60;;;1.47;;
4377;SDS011;2203;53.686;9.994;2023-08-31T15:22:25;1.80;;;1.00;;
4377;SDS011;2203;53.686;9.994;2023-08-31T15:24:53;3.50;;;1.07;;
4377;SDS011;2203;53.686;9.994;2023-08-31T15:27:19;1.07;;;0.80;;
4377;SDS011;2203;53.686;9.994;2023-08-31T15:29:44;3.60;;;0.90;;
4377;SDS011;2203;53.686;9.994;2023-08-31T15:32:10;4.30;;;1.23;;
4377;SDS011;2203;53.686;9.994;2023-08-31T15:34:36;2.23;;;1.00;;